createdAt,value
2024-03-12T00:02:08.561Z,100012.96
2024-03-12T00:04:43.208Z,100019.27
2024-03-12T00:07:14.723Z,100021.00
2024-03-12T00:09:48.261Z,100021.77
2024-03-12T00:12:19.180Z,100018.70
2024-03-12T00:14:50.534Z,100028.14
2024-03-12T00:17:21.199Z,100023.43
2024-03-12T00:20:18.334Z,100022.58
2024-03-12T00:22:52.167Z,100026.89
2024-03-12T00:25:24.941Z,100029.02
2024-03-12T00:27:57.811Z,100029.60
2024-03-12T00:30:29.555Z,100030.98
2024-03-12T00:33:02.067Z,100031.16
2024-03-12T00:35:52.937Z,100030.19
2024-03-12T00:38:23.594Z,100027.48
2024-03-12T00:40:54.460Z,100027.80
2024-03-12T00:43:25.054Z,100029.16
2024-03-12T00:45:55.650Z,100029.27
2024-03-12T00:48:26.345Z,100030.14
2024-03-12T00:50:56.888Z,100033.48
2024-03-12T00:53:27.543Z,100029.90
2024-03-12T00:55:59.537Z,100036.81
2024-03-12T00:58:30.206Z,100038.23
2024-03-12T01:01:01.807Z,100037.06
2024-03-12T01:03:32.531Z,100045.36
2024-03-12T01:06:07.116Z,100041.38
2024-03-12T01:08:37.694Z,100044.84
2024-03-12T01:11:08.319Z,100051.84
2024-03-12T01:13:40.713Z,100054.10
2024-03-12T01:16:11.414Z,100053.46
2024-03-12T01:18:47.914Z,100055.26
2024-03-12T01:21:21.797Z,100057.75
2024-03-12T01:23:59.933Z,100058.77
2024-03-12T01:26:30.393Z,100058.52
2024-03-12T01:29:04.240Z,100063.70
2024-03-12T01:31:45.285Z,100062.88
2024-03-12T01:34:17.096Z,100061.92
2024-03-12T01:36:49.269Z,100062.02
2024-03-12T01:39:26.445Z,100060.63
2024-03-12T01:41:57.260Z,100064.02
2024-03-12T01:44:30.763Z,100063.95
2024-03-12T01:46:59.919Z,100057.95
2024-03-12T01:49:34.007Z,100057.98
2024-03-12T01:52:12.327Z,100059.29
2024-03-12T01:54:45.038Z,100060.45
2024-03-12T01:57:17.961Z,100059.87
2024-03-12T01:59:51.525Z,100064.38
2024-03-12T02:02:22.061Z,100058.83
2024-03-12T02:04:54.886Z,100061.65
2024-03-12T02:07:25.483Z,100063.40
2024-03-12T02:10:06.681Z,100061.55
2024-03-12T02:12:37.579Z,100060.91
2024-03-12T02:15:09.638Z,100064.64
2024-03-12T02:17:41.073Z,100062.27
2024-03-12T02:20:13.997Z,100062.54
2024-03-12T02:22:45.056Z,100067.54
2024-03-12T02:25:18.563Z,100067.23
2024-03-12T02:27:49.553Z,100069.68
2024-03-12T02:30:20.625Z,100069.49
2024-03-12T02:32:51.994Z,100074.79
2024-03-12T02:35:25.262Z,100075.73
2024-03-12T02:37:56.221Z,100073.36
2024-03-12T02:40:29.476Z,100077.40
2024-03-12T02:42:59.958Z,100075.13
2024-03-12T02:45:30.620Z,100081.50
2024-03-12T02:48:21.446Z,100083.73
2024-03-12T02:50:52.601Z,100085.16
2024-03-12T02:53:33.115Z,100090.95
2024-03-12T02:56:03.740Z,100094.00
2024-03-12T02:58:57.404Z,100095.52
2024-03-12T03:01:28.677Z,100097.15
2024-03-12T03:04:01.705Z,100097.91
2024-03-12T03:06:35.088Z,100101.09
2024-03-12T03:09:07.656Z,100103.01
2024-03-12T03:11:38.304Z,100105.55
2024-03-12T03:14:11.596Z,100110.39
2024-03-12T03:16:55.130Z,100110.66
2024-03-12T03:19:28.206Z,100114.23
2024-03-12T03:21:58.940Z,100112.38
2024-03-12T03:24:29.481Z,100113.33
2024-03-12T03:27:00.075Z,100112.65
2024-03-12T03:29:32.734Z,100116.99
2024-03-12T03:32:07.642Z,100114.81
2024-03-12T03:34:38.641Z,100113.65
2024-03-12T03:37:19.532Z,100115.30
2024-03-12T03:39:50.113Z,100119.96
2024-03-12T03:42:30.812Z,100121.35
2024-03-12T03:45:01.397Z,100119.77
2024-03-12T03:47:36.073Z,100117.83
2024-03-12T03:50:09.392Z,100114.52
2024-03-12T03:52:56.441Z,100116.58
2024-03-12T03:55:27.059Z,100121.49
2024-03-12T03:58:08.652Z,100120.29
2024-03-12T04:00:40.913Z,100122.58
2024-03-12T04:03:18.943Z,100124.73
2024-03-12T04:05:49.397Z,100125.86
2024-03-12T04:08:22.818Z,100132.41
2024-03-12T04:10:53.974Z,100131.80
2024-03-12T04:13:24.480Z,100137.70
2024-03-12T04:15:56.646Z,100138.02
2024-03-12T04:18:37.540Z,100142.89
2024-03-12T04:21:08.801Z,100143.42
2024-03-12T04:23:49.471Z,100150.21
2024-03-12T04:26:30.770Z,100152.45
2024-03-12T04:29:01.178Z,100159.08
2024-03-12T04:31:34.902Z,100164.11
2024-03-12T04:34:05.429Z,100164.89
2024-03-12T04:36:36.642Z,100168.70
2024-03-12T04:39:31.535Z,100176.31
2024-03-12T04:42:07.154Z,100181.68
2024-03-12T04:44:38.092Z,100183.56
2024-03-12T04:47:12.114Z,100182.48
2024-03-12T04:49:46.680Z,100184.67
2024-03-12T04:52:20.640Z,100183.92
2024-03-12T04:54:51.393Z,100188.23
2024-03-12T04:57:22.152Z,100196.98
2024-03-12T04:59:52.812Z,100193.58
2024-03-12T05:02:23.784Z,100192.86
2024-03-12T05:04:57.335Z,100196.52
2024-03-12T05:07:27.805Z,100196.87
2024-03-12T05:10:12.373Z,100200.34
2024-03-12T05:12:43.126Z,100199.63
2024-03-12T05:15:16.059Z,100205.02
2024-03-12T05:17:50.562Z,100205.02
2024-03-12T05:20:24.781Z,100212.73
2024-03-12T05:22:59.559Z,100219.73
2024-03-12T05:25:40.638Z,100220.95
2024-03-12T05:28:12.853Z,100221.80
2024-03-12T05:30:43.635Z,100230.66
2024-03-12T05:33:29.536Z,100234.46
2024-03-12T05:36:10.438Z,100235.48
2024-03-12T05:38:56.162Z,100238.10
2024-03-12T05:41:29.709Z,100238.05
2024-03-12T05:44:17.859Z,100236.45
2024-03-12T05:47:13.334Z,100241.48
2024-03-12T05:49:43.932Z,100241.77
2024-03-12T05:52:16.003Z,100247.01
2024-03-12T05:54:46.809Z,100251.88
2024-03-12T05:57:20.458Z,100257.50
2024-03-12T05:59:51.090Z,100259.11
2024-03-12T06:02:21.682Z,100263.67
2024-03-12T06:04:53.772Z,100267.89
2024-03-12T06:07:25.307Z,100268.14
2024-03-12T06:09:56.927Z,100268.23
2024-03-12T06:12:27.598Z,100267.94
2024-03-12T06:14:58.097Z,100271.48
2024-03-12T06:17:31.675Z,100276.63
2024-03-12T06:20:02.482Z,100279.84
2024-03-12T06:22:33.297Z,100284.25
2024-03-12T06:25:04.027Z,100290.21
2024-03-12T06:27:34.142Z,100290.39
2024-03-12T06:30:16.296Z,100293.90
2024-03-12T06:32:57.511Z,100297.23
2024-03-12T06:35:29.174Z,100296.52
2024-03-12T06:38:02.555Z,100302.44
2024-03-12T06:40:33.205Z,100303.48
2024-03-12T06:43:04.041Z,100305.35
2024-03-12T06:45:35.145Z,100309.69
2024-03-12T06:48:07.723Z,100306.85
2024-03-12T06:50:38.428Z,100311.55
2024-03-12T06:53:08.997Z,100314.85
2024-03-12T06:55:39.826Z,100319.33
2024-03-12T06:58:13.339Z,100318.23
2024-03-12T07:00:55.294Z,100320.24
2024-03-12T07:03:48.375Z,100326.63
2024-03-12T07:06:42.335Z,100332.52
2024-03-12T07:09:23.835Z,100332.82
2024-03-12T07:11:55.439Z,100342.55
2024-03-12T07:14:31.911Z,100340.63
2024-03-12T07:17:08.839Z,100343.96
2024-03-12T07:19:50.900Z,100350.08
2024-03-12T07:22:21.616Z,100351.98
2024-03-12T07:25:05.544Z,100353.73
2024-03-12T07:27:40.183Z,100357.54
2024-03-12T07:30:30.898Z,100362.79
2024-03-12T07:33:05.839Z,100361.04
2024-03-12T07:35:36.563Z,100363.87
2024-03-12T07:38:28.884Z,100362.64
2024-03-12T07:40:59.570Z,100361.39
2024-03-12T07:43:40.934Z,100362.73
2024-03-12T07:46:15.647Z,100370.06
2024-03-12T07:49:08.921Z,100373.40
2024-03-12T07:51:42.615Z,100374.27
2024-03-12T07:54:15.018Z,100375.81
2024-03-12T07:56:45.488Z,100373.23
2024-03-12T07:59:22.495Z,100372.33
2024-03-12T08:01:54.255Z,100375.83
2024-03-12T08:04:27.328Z,100374.81
2024-03-12T08:06:58.048Z,100373.13
2024-03-12T08:09:28.586Z,100377.75
2024-03-12T08:11:59.312Z,100379.43
2024-03-12T08:14:29.963Z,100383.32
2024-03-12T08:17:13.384Z,100384.89
2024-03-12T08:19:44.771Z,100385.31
2024-03-12T08:22:17.751Z,100387.11
2024-03-12T08:24:48.789Z,100384.56
2024-03-12T08:27:22.077Z,100382.65
2024-03-12T08:29:52.669Z,100377.90
2024-03-12T08:32:44.325Z,100386.47
2024-03-12T08:35:25.239Z,100387.50
2024-03-12T08:37:55.639Z,100388.66
2024-03-12T08:40:28.928Z,100392.23
2024-03-12T08:43:04.190Z,100391.53
2024-03-12T08:45:46.989Z,100394.54
2024-03-12T08:48:28.913Z,100391.81
2024-03-12T08:51:10.006Z,100393.98
2024-03-12T08:53:40.531Z,100401.55
2024-03-12T08:56:11.406Z,100402.27
2024-03-12T08:58:43.180Z,100402.67
2024-03-12T09:01:14.334Z,100408.19
2024-03-12T09:03:46.982Z,100407.55
2024-03-12T09:06:25.170Z,100404.70
2024-03-12T09:09:07.058Z,100404.47
2024-03-12T09:11:40.394Z,100409.45
2024-03-12T09:14:19.618Z,100409.70
2024-03-12T09:16:55.539Z,100410.61
2024-03-12T09:19:26.694Z,100409.25
2024-03-12T09:22:05.603Z,100418.50
2024-03-12T09:24:37.252Z,100418.20
2024-03-12T09:27:11.357Z,100420.48
2024-03-12T09:29:44.485Z,100424.19
2024-03-12T09:32:25.286Z,100426.84
2024-03-12T09:34:55.818Z,100429.75
2024-03-12T09:37:29.485Z,100435.94
2024-03-12T09:40:02.571Z,100440.41
2024-03-12T09:42:35.144Z,100442.39
2024-03-12T09:45:09.590Z,100440.85
2024-03-12T09:47:41.041Z,100440.47
2024-03-12T09:50:18.346Z,100449.18
2024-03-12T09:52:51.885Z,100451.64
2024-03-12T09:55:23.456Z,100455.80
2024-03-12T09:57:57.443Z,100455.91
2024-03-12T10:00:29.479Z,100459.09
2024-03-12T10:03:12.374Z,100464.19
2024-03-12T10:05:43.011Z,100464.64
2024-03-12T10:08:15.306Z,100466.96
2024-03-12T10:10:47.789Z,100466.42
2024-03-12T10:13:20.903Z,100470.08
2024-03-12T10:16:04.656Z,100473.19
2024-03-12T10:18:40.167Z,100474.34
2024-03-12T10:21:13.182Z,100473.15
2024-03-12T10:23:44.385Z,100471.43
2024-03-12T10:26:17.769Z,100474.83
2024-03-12T10:28:52.263Z,100477.17
2024-03-12T10:31:23.513Z,100476.53
2024-03-12T10:33:54.141Z,100473.88
2024-03-12T10:36:34.870Z,100477.77
2024-03-12T10:39:28.653Z,100480.09
2024-03-12T10:42:01.584Z,100480.33
2024-03-12T10:44:37.727Z,100482.98
2024-03-12T10:47:20.354Z,100484.45
2024-03-12T10:49:50.907Z,100482.09
2024-03-12T10:52:25.231Z,100485.89
2024-03-12T10:55:05.703Z,100490.57
2024-03-12T10:57:41.660Z,100486.83
2024-03-12T11:00:37.308Z,100490.78
2024-03-12T11:03:19.128Z,100491.27
2024-03-12T11:05:50.043Z,100490.44
2024-03-12T11:08:20.870Z,100490.45
2024-03-12T11:11:13.737Z,100489.73
2024-03-12T11:13:58.141Z,100491.36
2024-03-12T11:16:34.047Z,100491.50
2024-03-12T11:19:26.392Z,100490.15
2024-03-12T11:22:02.606Z,100488.34
2024-03-12T11:24:47.073Z,100487.52
2024-03-12T11:27:26.528Z,100485.55
2024-03-12T11:30:15.618Z,100494.70
2024-03-12T11:32:50.084Z,100486.82
2024-03-12T11:35:43.607Z,100484.65
2024-03-12T11:38:34.515Z,100485.69
2024-03-12T11:41:05.178Z,100485.95
2024-03-12T11:43:40.586Z,100483.91
2024-03-12T11:46:45.494Z,100486.27
2024-03-12T11:49:35.571Z,100483.35
2024-03-12T11:52:09.150Z,100485.70
2024-03-12T11:54:58.624Z,100492.21
2024-03-12T11:57:51.690Z,100497.37
2024-03-12T12:00:33.060Z,100492.52
2024-03-12T12:03:07.722Z,100493.65
2024-03-12T12:05:41.855Z,100494.96
2024-03-12T12:08:16.252Z,100499.23
2024-03-12T12:11:04.850Z,100500.11
2024-03-12T12:13:38.653Z,100506.91
2024-03-12T12:16:16.930Z,100507.69
2024-03-12T12:18:48.555Z,100509.52
2024-03-12T12:21:22.212Z,100509.08
2024-03-12T12:23:53.143Z,100511.66
2024-03-12T12:26:35.488Z,100514.80
2024-03-12T12:29:07.671Z,100517.88
2024-03-12T12:31:43.183Z,100514.06
2024-03-12T12:34:17.072Z,100515.08
2024-03-12T12:36:48.226Z,100520.33
2024-03-12T12:39:36.555Z,100520.84
2024-03-12T12:42:25.265Z,100518.98
2024-03-12T12:45:09.903Z,100520.05
2024-03-12T12:47:41.699Z,100521.44
2024-03-12T12:50:34.999Z,100519.05
2024-03-12T12:53:06.840Z,100520.28
2024-03-12T12:56:02.516Z,100522.58
2024-03-12T12:58:37.777Z,100521.36
2024-03-12T13:01:13.067Z,100524.14
2024-03-12T13:03:55.192Z,100518.30
2024-03-12T13:06:28.344Z,100514.91
2024-03-12T13:09:00.908Z,100513.50
2024-03-12T13:11:32.788Z,100518.83
2024-03-12T13:14:03.544Z,100519.42
2024-03-12T13:16:35.105Z,100520.93
2024-03-12T13:19:07.915Z,100518.77
2024-03-12T13:21:38.584Z,100519.55
2024-03-12T13:24:30.922Z,100523.65
2024-03-12T13:27:06.566Z,100524.46
2024-03-12T13:29:35.741Z,100525.45
2024-03-12T13:32:13.977Z,100522.81
2024-03-12T13:34:56.107Z,100524.56
2024-03-12T13:37:30.850Z,100523.20
2024-03-12T13:40:01.879Z,100524.63
2024-03-12T13:42:40.179Z,100523.55
2024-03-12T13:45:11.069Z,100528.23
2024-03-12T13:47:42.872Z,100526.20
2024-03-12T13:50:21.003Z,100526.59
2024-03-12T13:52:53.324Z,100526.60
2024-03-12T13:55:24.160Z,100531.45
2024-03-12T13:57:54.764Z,100530.47
2024-03-12T14:00:35.601Z,100532.92
2024-03-12T14:03:17.098Z,100536.55
2024-03-12T14:05:47.514Z,100534.92
2024-03-12T14:08:19.008Z,100533.48
2024-03-12T14:10:51.304Z,100532.38
2024-03-12T14:13:22.994Z,100532.44
2024-03-12T14:15:54.738Z,100527.81
2024-03-12T14:18:27.705Z,100530.17
2024-03-12T14:21:01.909Z,100538.29
2024-03-12T14:23:35.354Z,100542.05
2024-03-12T14:26:09.191Z,100543.38
2024-03-12T14:28:41.042Z,100543.62
2024-03-12T14:31:11.687Z,100543.17
2024-03-12T14:33:50.980Z,100544.42
2024-03-12T14:36:21.478Z,100551.30
2024-03-12T14:38:54.652Z,100555.71
2024-03-12T14:41:46.099Z,100554.39
2024-03-12T14:44:16.614Z,100554.55
2024-03-12T14:47:00.569Z,100555.80
2024-03-12T14:49:37.477Z,100558.66
2024-03-12T14:52:11.369Z,100558.87
2024-03-12T14:54:45.273Z,100559.22
2024-03-12T14:57:15.974Z,100562.41
2024-03-12T14:59:47.046Z,100563.15
2024-03-12T15:02:17.678Z,100562.14
2024-03-12T15:04:57.337Z,100562.73
2024-03-12T15:07:30.253Z,100558.58
2024-03-12T15:10:21.282Z,100556.38
2024-03-12T15:13:06.371Z,100553.98
2024-03-12T15:15:36.547Z,100557.92
2024-03-12T15:18:09.070Z,100558.20
2024-03-12T15:20:40.077Z,100559.48
2024-03-12T15:23:10.672Z,100560.57
2024-03-12T15:25:44.710Z,100559.37
2024-03-12T15:28:15.336Z,100555.89
2024-03-12T15:30:48.785Z,100556.10
2024-03-12T15:33:19.734Z,100552.24
2024-03-12T15:35:51.041Z,100551.23
2024-03-12T15:38:21.613Z,100551.57
2024-03-12T15:40:53.072Z,100552.08
2024-03-12T15:43:23.056Z,100551.52
2024-03-12T15:45:54.544Z,100544.66
2024-03-12T15:48:25.650Z,100543.42
2024-03-12T15:50:56.306Z,100546.91
2024-03-12T15:53:26.851Z,100545.83
2024-03-12T15:55:57.329Z,100547.39
2024-03-12T15:58:28.698Z,100545.94
2024-03-12T16:01:00.291Z,100543.30
2024-03-12T16:03:35.259Z,100543.21
2024-03-12T16:06:06.208Z,100544.35
2024-03-12T16:08:36.902Z,100545.64
2024-03-12T16:11:28.100Z,100541.35
2024-03-12T16:14:01.329Z,100539.10
2024-03-12T16:16:42.534Z,100537.61
2024-03-12T16:19:14.846Z,100536.34
2024-03-12T16:21:49.102Z,100537.36
2024-03-12T16:24:19.828Z,100537.73
2024-03-12T16:26:53.382Z,100540.20
2024-03-12T16:29:25.038Z,100542.19
2024-03-12T16:31:56.056Z,100539.45
2024-03-12T16:34:27.149Z,100540.19
2024-03-12T16:37:00.245Z,100540.57
2024-03-12T16:39:30.884Z,100542.05
2024-03-12T16:42:01.461Z,100544.76
2024-03-12T16:44:35.807Z,100540.80
2024-03-12T16:47:06.368Z,100544.36
2024-03-12T16:49:38.563Z,100543.89
2024-03-12T16:52:12.114Z,100541.67
2024-03-12T16:54:47.639Z,100540.65
2024-03-12T16:57:23.007Z,100543.66
2024-03-12T16:59:57.860Z,100548.11
2024-03-12T17:02:42.959Z,100547.63
2024-03-12T17:05:23.675Z,100548.89
2024-03-12T17:07:59.572Z,100548.57
2024-03-12T17:10:33.922Z,100547.39
2024-03-12T17:13:09.304Z,100545.18
2024-03-12T17:15:45.491Z,100548.24
2024-03-12T17:18:18.685Z,100550.02
2024-03-12T17:21:00.680Z,100552.53
2024-03-12T17:23:32.093Z,100550.80
2024-03-12T17:26:05.360Z,100551.74
2024-03-12T17:28:40.158Z,100554.21
2024-03-12T17:31:15.920Z,100552.69
2024-03-12T17:33:49.041Z,100552.16
2024-03-12T17:36:24.026Z,100551.65
2024-03-12T17:38:55.267Z,100552.58
2024-03-12T17:41:35.386Z,100560.11
2024-03-12T17:44:07.789Z,100559.98
2024-03-12T17:46:46.288Z,100561.40
2024-03-12T17:49:24.234Z,100561.77
2024-03-12T17:51:55.965Z,100562.49
2024-03-12T17:54:29.738Z,100563.24
2024-03-12T17:57:14.892Z,100567.99
2024-03-12T17:59:46.283Z,100570.96
2024-03-12T18:02:15.459Z,100569.73
2024-03-12T18:04:48.414Z,100569.05
2024-03-12T18:07:24.514Z,100574.83
2024-03-12T18:09:56.846Z,100565.84
2024-03-12T18:12:49.355Z,100567.29
2024-03-12T18:15:21.696Z,100566.27
2024-03-12T18:17:53.280Z,100564.65
2024-03-12T18:20:31.437Z,100565.31
2024-03-12T18:23:02.372Z,100567.21
2024-03-12T18:25:36.452Z,100565.42
2024-03-12T18:28:08.628Z,100564.68
2024-03-12T18:30:39.786Z,100566.72
2024-03-12T18:33:10.036Z,100564.21
2024-03-12T18:35:42.989Z,100570.16
2024-03-12T18:38:25.198Z,100567.68
2024-03-12T18:40:55.793Z,100570.09
2024-03-12T18:43:26.395Z,100569.90
2024-03-12T18:45:57.095Z,100573.20
2024-03-12T18:48:31.770Z,100571.45
2024-03-12T18:51:03.458Z,100575.29
2024-03-12T18:53:35.539Z,100574.41
2024-03-12T18:56:28.459Z,100573.73
2024-03-12T18:58:59.788Z,100575.69
2024-03-12T19:01:43.124Z,100578.20
2024-03-12T19:04:14.303Z,100579.13
2024-03-12T19:07:05.952Z,100578.13
2024-03-12T19:09:39.448Z,100579.23
2024-03-12T19:12:12.325Z,100579.13
2024-03-12T19:14:44.807Z,100583.54
2024-03-12T19:17:16.288Z,100581.16
2024-03-12T19:19:47.428Z,100587.19
2024-03-12T19:22:19.201Z,100586.19
2024-03-12T19:24:50.560Z,100588.05
2024-03-12T19:27:30.636Z,100586.88
2024-03-12T19:30:06.691Z,100585.77
2024-03-12T19:32:38.740Z,100592.20
2024-03-12T19:35:18.321Z,100591.61
2024-03-12T19:37:50.388Z,100587.84
2024-03-12T19:40:22.379Z,100591.05
2024-03-12T19:42:56.111Z,100592.70
2024-03-12T19:45:32.113Z,100593.29
2024-03-12T19:48:03.625Z,100594.60
2024-03-12T19:50:37.652Z,100593.05
2024-03-12T19:53:10.399Z,100595.18
2024-03-12T19:55:47.282Z,100597.52
2024-03-12T19:58:20.734Z,100595.30
2024-03-12T20:00:53.892Z,100596.73
2024-03-12T20:03:26.654Z,100594.33
2024-03-12T20:05:57.910Z,100593.71
2024-03-12T20:08:28.142Z,100595.14
2024-03-12T20:10:58.777Z,100594.65
2024-03-12T20:13:38.320Z,100593.85
2024-03-12T20:16:12.362Z,100591.80
2024-03-12T20:18:44.380Z,100591.46
2024-03-12T20:21:18.165Z,100592.35
2024-03-12T20:23:48.648Z,100588.88
2024-03-12T20:26:22.562Z,100589.25
2024-03-12T20:28:56.253Z,100588.77
2024-03-12T20:31:26.981Z,100585.98
2024-03-12T20:33:57.656Z,100585.69
2024-03-12T20:36:36.987Z,100585.34
2024-03-12T20:39:12.670Z,100580.79
2024-03-12T20:41:43.399Z,100582.01
2024-03-12T20:44:13.782Z,100581.48
2024-03-12T20:46:44.420Z,100583.23
2024-03-12T20:49:15.837Z,100579.92
2024-03-12T20:51:47.088Z,100578.70
2024-03-12T20:54:18.065Z,100578.16
2024-03-12T20:56:48.691Z,100575.24
2024-03-12T20:59:21.878Z,100576.49
2024-03-12T21:01:52.581Z,100575.10
2024-03-12T21:04:23.398Z,100573.52
2024-03-12T21:07:05.242Z,100569.34
2024-03-12T21:09:40.504Z,100566.90
2024-03-12T21:12:20.766Z,100567.61
2024-03-12T21:14:54.268Z,100567.46
2024-03-12T21:17:30.986Z,100564.13
2024-03-12T21:20:01.710Z,100564.30
2024-03-12T21:22:43.789Z,100559.40
2024-03-12T21:25:27.766Z,100561.68
2024-03-12T21:27:59.303Z,100559.23
2024-03-12T21:30:42.436Z,100559.09
2024-03-12T21:33:33.237Z,100557.88
2024-03-12T21:36:16.879Z,100553.00
2024-03-12T21:38:50.358Z,100554.06
2024-03-12T21:41:20.859Z,100552.83
2024-03-12T21:43:54.277Z,100550.21
2024-03-12T21:46:27.225Z,100547.23
2024-03-12T21:48:57.854Z,100540.77
2024-03-12T21:51:48.885Z,100536.74
2024-03-12T21:54:19.365Z,100533.61
2024-03-12T21:56:49.789Z,100532.03
2024-03-12T21:59:23.296Z,100531.88
2024-03-12T22:01:56.640Z,100530.13
2024-03-12T22:04:27.228Z,100533.15
2024-03-12T22:06:57.937Z,100531.41
2024-03-12T22:09:39.744Z,100531.11
2024-03-12T22:12:11.238Z,100525.89
2024-03-12T22:14:42.246Z,100522.27
2024-03-12T22:17:15.173Z,100518.69
2024-03-12T22:19:46.680Z,100511.73
2024-03-12T22:22:20.539Z,100513.05
2024-03-12T22:25:01.556Z,100510.52
2024-03-12T22:27:52.357Z,100516.73
2024-03-12T22:30:23.342Z,100514.52
2024-03-12T22:33:04.547Z,100510.90
2024-03-12T22:35:37.761Z,100514.29
2024-03-12T22:38:14.347Z,100518.35
2024-03-12T22:40:48.376Z,100518.92
2024-03-12T22:43:20.534Z,100512.81
2024-03-12T22:45:51.645Z,100513.20
2024-03-12T22:48:35.844Z,100505.70
2024-03-12T22:51:10.887Z,100503.23
2024-03-12T22:53:46.473Z,100505.88
2024-03-12T22:56:20.492Z,100500.45
2024-03-12T22:58:52.148Z,100502.39
2024-03-12T23:01:26.125Z,100503.64
2024-03-12T23:03:57.621Z,100500.33
2024-03-12T23:06:48.943Z,100496.84
2024-03-12T23:09:18.589Z,100494.23
2024-03-12T23:11:49.504Z,100490.59
2024-03-12T23:14:32.873Z,100486.50
2024-03-12T23:17:05.908Z,100484.08
2024-03-12T23:19:48.043Z,100474.70
2024-03-12T23:22:29.748Z,100469.87
2024-03-12T23:25:00.750Z,100465.36
2024-03-12T23:27:31.893Z,100465.96
2024-03-12T23:30:17.861Z,100459.73
2024-03-12T23:32:52.818Z,100461.52
2024-03-12T23:35:44.149Z,100462.80
2024-03-12T23:38:25.215Z,100461.73
2024-03-12T23:41:05.988Z,100456.66
2024-03-12T23:43:41.733Z,100458.03
2024-03-12T23:46:15.187Z,100456.58
2024-03-12T23:48:48.989Z,100452.52
2024-03-12T23:51:31.885Z,100445.80
2024-03-12T23:54:13.530Z,100441.71
2024-03-12T23:56:43.986Z,100435.19
2024-03-12T23:59:36.781Z,100432.33
